Time;durP1;ratioP1;P1;durP2;ratioP2;P2;SDS_P1;SDS_P2;PMS_P1;PMS_P2;Temp;Humidity;BMP_temperature;BMP_pressure;BME280_temperature;BME280_humidity;BME280_pressure;Samples;Min_cycle;Max_cycle;Signal;HPM_P1;HPM_P2
2022/06/28 00:01:19;;;;;;;13.90;4.57;;;18.30;59.70;;;;;;5054324;28;20277;-88
2022/06/28 00:03:47;;;;;;;7.77;2.57;;;18.30;59.80;;;;;;5051283;28;20662;-89
2022/06/28 00:06:14;;;;;;;17.20;4.90;;;18.30;59.80;;;;;;5050495;28;20279;-89
2022/06/28 00:08:42;;;;;;;12.97;3.63;;;18.20;59.80;;;;;;5049395;28;21098;-90
2022/06/28 00:11:10;;;;;;;14.20;4.53;;;18.20;59.90;;;;;;5040356;28;20291;-89
2022/06/28 00:13:37;;;;;;;10.97;3.07;;;18.20;59.90;;;;;;5036969;28;20202;-89
2022/06/28 00:16:06;;;;;;;14.40;4.67;;;18.20;60.00;;;;;;5046969;28;20262;-88
2022/06/28 00:18:35;;;;;;;10.10;3.77;;;18.20;60.30;;;;;;5048856;28;20209;-88
2022/06/28 00:21:02;;;;;;;11.40;3.73;;;18.20;60.50;;;;;;5046945;28;20307;-89
2022/06/28 00:23:30;;;;;;;17.80;5.33;;;18.20;60.40;;;;;;5041707;28;20199;-89
2022/06/28 00:25:58;;;;;;;10.20;3.77;;;18.20;60.30;;;;;;5028546;28;20210;-89
2022/06/28 00:28:26;;;;;;;18.23;4.00;;;18.20;60.30;;;;;;5031503;28;20661;-89
2022/06/28 00:30:53;;;;;;;15.03;4.27;;;18.20;60.20;;;;;;5047927;28;20202;-89
2022/06/28 00:33:20;;;;;;;15.77;4.60;;;18.20;60.20;;;;;;5046440;28;20300;-90
2022/06/28 00:35:47;;;;;;;11.60;3.77;;;18.10;60.10;;;;;;5046894;28;20206;-89
2022/06/28 00:38:16;;;;;;;10.60;3.60;;;18.10;60.10;;;;;;5048771;28;20301;-90
2022/06/28 00:40:47;;;;;;;10.90;3.47;;;18.10;60.10;;;;;;5047025;28;20247;-88
2022/06/28 00:43:17;;;;;;;11.90;3.33;;;18.10;60.40;;;;;;5048782;28;20245;-90
2022/06/28 00:45:46;;;;;;;13.60;3.23;;;18.00;60.30;;;;;;5045729;28;20291;-90
2022/06/28 00:48:15;;;;;;;10.77;3.10;;;18.00;60.30;;;;;;5048988;28;20320;-89
2022/06/28 00:50:43;;;;;;;12.73;3.93;;;18.00;60.40;;;;;;5048787;28;20210;-89
2022/06/28 00:53:12;;;;;;;9.17;3.30;;;17.90;60.50;;;;;;5049519;28;20838;-88
2022/06/28 00:55:39;;;;;;;14.50;4.23;;;17.90;60.60;;;;;;5047862;28;20258;-88
2022/06/28 00:58:09;;;;;;;19.60;5.33;;;17.80;60.50;;;;;;5047669;28;20687;-89
2022/06/28 01:00:41;;;;;;;13.87;4.10;;;17.80;60.60;;;;;;5047962;28;20243;-89
2022/06/28 01:03:11;;;;;;;13.07;3.93;;;17.80;60.90;;;;;;5045975;28;20220;-90
2022/06/28 01:05:42;;;;;;;11.63;3.77;;;17.80;60.80;;;;;;5047835;28;20208;-88
2022/06/28 01:08:12;;;;;;;10.23;3.50;;;17.80;61.10;;;;;;5046153;28;20217;-88
2022/06/28 01:10:41;;;;;;;18.33;4.57;;;17.70;61.10;;;;;;5047089;28;20741;-89
2022/06/28 01:13:09;;;;;;;19.87;5.63;;;17.70;61.10;;;;;;5046731;28;20210;-89
2022/06/28 01:15:40;;;;;;;9.27;3.27;;;17.60;61.10;;;;;;5046920;28;20240;-90
2022/06/28 01:18:09;;;;;;;10.83;3.70;;;17.60;61.30;;;;;;5038553;28;20212;-89
2022/06/28 01:20:36;;;;;;;12.17;4.10;;;17.60;61.40;;;;;;5031688;28;20226;-88
2022/06/28 01:23:05;;;;;;;11.53;3.73;;;17.60;61.50;;;;;;5048168;28;20294;-88
2022/06/28 01:25:33;;;;;;;13.20;3.53;;;17.50;61.40;;;;;;5045589;28;20336;-89
2022/06/28 01:28:01;;;;;;;13.57;4.10;;;17.50;61.30;;;;;;5048048;28;20263;-89
2022/06/28 01:30:30;;;;;;;14.87;4.67;;;17.40;61.40;;;;;;5047260;28;20217;-88
2022/06/28 01:32:57;;;;;;;11.80;3.67;;;17.40;61.90;;;;;;5048263;28;20216;-88
2022/06/28 01:35:24;;;;;;;14.07;4.70;;;17.30;61.70;;;;;;5048101;28;20693;-88
2022/06/28 01:37:56;;;;;;;12.03;4.17;;;17.30;61.80;;;;;;5050820;28;20240;-89
2022/06/28 01:40:25;;;;;;;16.17;5.67;;;17.30;62.20;;;;;;5049521;28;20240;-89
2022/06/28 01:42:52;;;;;;;14.50;4.57;;;17.20;62.30;;;;;;5050579;28;20208;-90
2022/06/28 01:45:19;;;;;;;11.00;3.83;;;17.20;62.20;;;;;;5051497;28;20220;-90
2022/06/28 01:47:48;;;;;;;15.13;4.37;;;17.10;62.30;;;;;;5050228;28;20293;-88
2022/06/28 01:50:15;;;;;;;19.67;5.43;;;17.10;62.40;;;;;;5049221;28;20668;-89
2022/06/28 01:52:43;;;;;;;13.33;4.20;;;17.10;62.40;;;;;;5050299;28;20200;-90
2022/06/28 01:55:10;;;;;;;26.43;6.60;;;17.00;62.50;;;;;;5048620;28;20200;-88
2022/06/28 01:57:40;;;;;;;16.00;4.13;;;17.00;62.50;;;;;;5050010;28;20222;-87
2022/06/28 02:00:09;;;;;;;23.37;6.97;;;17.00;62.50;;;;;;5046568;28;20734;-89
2022/06/28 02:02:36;;;;;;;13.17;4.30;;;16.90;62.50;;;;;;5050210;28;20210;-88
2022/06/28 02:05:05;;;;;;;18.90;5.30;;;16.90;62.70;;;;;;5049807;28;20201;-90
2022/06/28 02:07:32;;;;;;;13.60;3.70;;;16.90;63.10;;;;;;5044780;28;20838;-87
2022/06/28 02:09:59;;;;;;;20.20;5.47;;;16.80;62.90;;;;;;5050937;28;20212;-89
2022/06/28 02:12:28;;;;;;;13.30;4.03;;;16.80;63.80;;;;;;5046818;28;20248;-88
2022/06/28 02:15:00;;;;;;;22.10;5.37;;;16.80;63.20;;;;;;5049001;28;20219;-88
2022/06/28 02:17:27;;;;;;;17.97;5.87;;;16.80;63.70;;;;;;5048529;28;20203;-89
2022/06/28 02:19:54;;;;;;;14.03;4.47;;;16.80;63.30;;;;;;5050669;28;20261;-88
2022/06/28 02:22:21;;;;;;;14.33;4.93;;;16.80;63.40;;;;;;5049144;28;20204;-88
2022/06/28 02:24:51;;;;;;;10.87;4.07;;;16.80;63.40;;;;;;5050451;28;20265;-89
2022/06/28 02:27:18;;;;;;;21.77;6.70;;;16.70;63.20;;;;;;5043739;28;20820;-88
2022/06/28 02:29:47;;;;;;;14.23;4.20;;;16.70;63.20;;;;;;5050620;28;20212;-88
2022/06/28 02:32:19;;;;;;;18.50;5.27;;;16.70;63.50;;;;;;5048107;28;20227;-89
2022/06/28 02:40:22;;;;;;;19.30;6.50;;;16.60;63.60;;;;;;5051526;28;20348;-88
2022/06/28 02:42:51;;;;;;;15.60;4.80;;;16.60;63.80;;;;;;5038062;28;20250;-89
2022/06/28 02:45:19;;;;;;;15.77;4.63;;;16.60;64.00;;;;;;5051238;28;20206;-87
2022/06/28 02:47:48;;;;;;;15.23;4.70;;;16.60;64.00;;;;;;5050773;28;20222;-88
2022/06/28 02:50:15;;;;;;;18.23;5.40;;;16.50;64.10;;;;;;5051094;28;20614;-88
2022/06/28 02:52:43;;;;;;;16.07;5.00;;;16.50;64.10;;;;;;5044365;28;20287;-88
2022/06/28 02:55:11;;;;;;;16.40;5.03;;;16.40;64.10;;;;;;5032663;28;20214;-88
2022/06/28 02:57:39;;;;;;;13.87;4.20;;;16.40;64.20;;;;;;5049512;28;20309;-87
2022/06/28 03:00:09;;;;;;;10.13;3.83;;;16.40;64.50;;;;;;5051034;28;20749;-89
2022/06/28 03:02:38;;;;;;;15.93;4.43;;;16.40;64.70;;;;;;5049852;28;20233;-88
2022/06/28 03:05:08;;;;;;;10.33;3.93;;;16.40;64.70;;;;;;5049954;28;20314;-87
2022/06/28 03:07:35;;;;;;;12.23;4.03;;;16.40;64.80;;;;;;5047312;28;20222;-88
2022/06/28 03:10:03;;;;;;;14.47;4.77;;;16.40;64.80;;;;;;5049485;28;20749;-88
2022/06/28 03:12:30;;;;;;;12.67;4.53;;;16.30;64.70;;;;;;5044814;28;20236;-88
2022/06/28 03:14:57;;;;;;;12.97;4.20;;;16.30;64.80;;;;;;5047833;28;20257;-87
2022/06/28 03:17:24;;;;;;;14.30;4.90;;;16.30;64.90;;;;;;5046827;28;20211;-87
2022/06/28 03:19:51;;;;;;;10.87;4.10;;;16.40;65.10;;;;;;5047601;28;20317;-88
2022/06/28 03:22:20;;;;;;;16.73;5.03;;;16.30;65.10;;;;;;5048919;28;20314;-89
2022/06/28 03:24:47;;;;;;;14.63;5.00;;;16.30;65.30;;;;;;5047973;28;20627;-89
2022/06/28 03:27:15;;;;;;;16.57;4.83;;;16.30;65.20;;;;;;5047241;28;20234;-88
2022/06/28 03:29:44;;;;;;;10.53;3.27;;;16.30;65.40;;;;;;5049499;28;20230;-88
2022/06/28 03:32:13;;;;;;;13.17;4.53;;;16.30;65.40;;;;;;5047407;28;20718;-88
2022/06/28 03:34:40;;;;;;;10.27;3.83;;;16.30;65.50;;;;;;5047603;28;20196;-88
2022/06/28 03:37:07;;;;;;;17.23;5.60;;;16.30;65.40;;;;;;5050174;28;20208;-87
2022/06/28 03:39:36;;;;;;;13.90;4.30;;;16.30;65.50;;;;;;5046924;28;20237;-88
2022/06/28 03:42:04;;;;;;;14.83;4.43;;;16.30;65.70;;;;;;5057290;28;20281;-88
2022/06/28 03:44:31;;;;;;;16.80;5.37;;;16.30;65.80;;;;;;5056055;28;20200;-87
2022/06/28 03:46:58;;;;;;;16.43;5.30;;;16.30;65.80;;;;;;5050005;28;20204;-89
2022/06/28 03:49:25;;;;;;;14.37;5.23;;;16.30;65.90;;;;;;5042434;28;21220;-88
2022/06/28 03:51:52;;;;;;;17.10;6.03;;;16.20;65.80;;;;;;5031070;28;20319;-87
2022/06/28 03:54:19;;;;;;;22.90;5.90;;;16.20;65.80;;;;;;5035845;28;20206;-88
2022/06/28 03:56:50;;;;;;;18.17;5.57;;;16.20;65.90;;;;;;5044812;28;20261;-87
2022/06/28 03:59:17;;;;;;;16.20;4.83;;;16.20;66.20;;;;;;5047928;28;20241;-89
2022/06/28 04:01:44;;;;;;;16.80;4.80;;;16.20;66.20;;;;;;5047389;28;20231;-88
2022/06/28 04:04:14;;;;;;;21.20;6.13;;;16.20;66.20;;;;;;5048477;28;20239;-89
2022/06/28 04:06:41;;;;;;;13.70;4.50;;;16.20;66.50;;;;;;5047697;28;20759;-88
2022/06/28 04:09:08;;;;;;;12.80;4.67;;;16.20;66.40;;;;;;5045285;28;20235;-89
2022/06/28 04:11:37;;;;;;;18.03;6.00;;;16.20;66.50;;;;;;5027847;28;20285;-88
2022/06/28 04:14:05;;;;;;;12.13;3.93;;;16.20;66.60;;;;;;5047300;28;20227;-88
2022/06/28 04:16:32;;;;;;;15.53;4.50;;;16.20;66.80;;;;;;5048196;28;20234;-89
2022/06/28 04:19:00;;;;;;;12.27;4.07;;;16.20;66.70;;;;;;5044069;28;20344;-89
2022/06/28 04:21:29;;;;;;;11.43;3.00;;;16.20;66.90;;;;;;5048787;28;20307;-88
2022/06/28 04:23:56;;;;;;;18.63;4.53;;;16.20;67.20;;;;;;5046766;28;20910;-89
2022/06/28 04:26:23;;;;;;;13.20;3.97;;;16.20;67.00;;;;;;5048017;28;20550;-88
2022/06/28 04:28:50;;;;;;;11.87;3.53;;;16.20;67.20;;;;;;5047320;28;20232;-90
2022/06/28 04:31:18;;;;;;;13.23;4.13;;;16.20;67.40;;;;;;5048202;28;20666;-89
2022/06/28 04:33:45;;;;;;;14.33;3.93;;;16.20;67.50;;;;;;5045753;28;20202;-89
2022/06/28 04:36:15;;;;;;;11.77;3.80;;;16.20;67.40;;;;;;5047675;28;20212;-89
2022/06/28 04:38:42;;;;;;;10.30;3.27;;;16.20;67.70;;;;;;5046945;28;20235;-90
2022/06/28 04:41:12;;;;;;;12.73;3.70;;;16.20;67.60;;;;;;5041061;28;20198;-90
2022/06/28 04:43:39;;;;;;;14.30;3.33;;;16.20;68.10;;;;;;5040133;28;20285;-88
2022/06/28 04:46:07;;;;;;;20.03;5.37;;;16.20;68.00;;;;;;5047927;28;20287;-91
2022/06/28 04:48:35;;;;;;;18.77;4.43;;;16.30;68.20;;;;;;5047959;28;20303;-86
2022/06/28 04:51:11;;;;;;;17.63;5.23;;;16.30;68.40;;;;;;5047414;28;20241;-86
2022/06/28 04:53:39;;;;;;;13.30;4.43;;;16.30;68.40;;;;;;5037677;28;20268;-87
2022/06/28 04:56:07;;;;;;;13.63;4.23;;;16.30;68.50;;;;;;5047962;28;20215;-86
2022/06/28 04:58:36;;;;;;;13.60;4.13;;;16.30;68.50;;;;;;5051633;28;20219;-88
2022/06/28 05:01:04;;;;;;;21.73;5.40;;;16.30;68.70;;;;;;5056274;28;20196;-86
2022/06/28 05:03:31;;;;;;;17.67;4.27;;;16.30;68.80;;;;;;5047199;28;20719;-87
2022/06/28 05:06:03;;;;;;;10.27;3.13;;;16.30;68.90;;;;;;5051218;28;20211;-87
2022/06/28 05:08:30;;;;;;;17.03;4.83;;;16.30;69.30;;;;;;5050697;28;20346;-87
2022/06/28 05:10:57;;;;;;;16.17;4.87;;;16.40;69.30;;;;;;5051128;28;20687;-89
2022/06/28 05:13:24;;;;;;;19.73;5.40;;;16.40;69.40;;;;;;5052982;28;20208;-88
2022/06/28 05:15:53;;;;;;;13.07;3.93;;;16.40;69.60;;;;;;5048825;28;20256;-88
2022/06/28 05:18:20;;;;;;;11.50;3.63;;;16.40;70.10;;;;;;5048709;28;20656;-88
2022/06/28 05:20:47;;;;;;;15.87;4.47;;;16.40;70.00;;;;;;5050891;28;20208;-88
2022/06/28 05:23:16;;;;;;;10.50;3.80;;;16.50;69.90;;;;;;5050949;28;20214;-88
2022/06/28 05:25:44;;;;;;;9.33;3.40;;;16.50;70.30;;;;;;5048754;28;20206;-88
2022/06/28 05:28:11;;;;;;;17.80;5.13;;;16.60;70.50;;;;;;5050748;28;20236;-88
2022/06/28 05:30:41;;;;;;;23.70;6.30;;;16.60;70.30;;;;;;5047429;28;20248;-89
2022/06/28 05:33:08;;;;;;;17.77;4.80;;;16.60;70.50;;;;;;5045197;28;20282;-89
2022/06/28 05:35:36;;;;;;;21.03;6.13;;;16.70;70.50;;;;;;5044443;28;20223;-89
2022/06/28 05:38:04;;;;;;;15.60;5.17;;;16.70;70.60;;;;;;5051571;28;20576;-87
2022/06/28 05:40:36;;;;;;;23.27;6.73;;;16.70;70.50;;;;;;5049419;28;20256;-87
2022/06/28 05:43:04;;;;;;;14.33;5.07;;;16.80;71.10;;;;;;5048406;28;20219;-88
2022/06/28 05:45:34;;;;;;;13.10;4.37;;;16.80;70.80;;;;;;5049919;28;20200;-87
2022/06/28 05:48:01;;;;;;;12.17;4.37;;;16.90;70.90;;;;;;5049279;28;20201;-87
2022/06/28 05:50:28;;;;;;;19.77;5.83;;;16.90;70.90;;;;;;5049523;28;20216;-89
2022/06/28 05:52:56;;;;;;;14.23;4.67;;;16.90;70.90;;;;;;5036966;28;20246;-87
2022/06/28 05:55:23;;;;;;;15.00;3.93;;;17.00;71.10;;;;;;5046352;28;21033;-88
2022/06/28 05:57:55;;;;;;;12.17;3.70;;;17.00;71.00;;;;;;5050690;28;20201;-88
2022/06/28 06:00:22;;;;;;;20.37;5.90;;;17.00;71.10;;;;;;5051630;28;20245;-88
2022/06/28 06:02:49;;;;;;;12.97;4.57;;;17.10;71.00;;;;;;5049142;28;20232;-89
2022/06/28 06:05:16;;;;;;;9.73;4.17;;;17.10;71.10;;;;;;5051659;28;20616;-88
2022/06/28 06:07:43;;;;;;;25.40;6.90;;;17.20;71.20;;;;;;5050263;28;20201;-88
2022/06/28 06:10:10;;;;;;;16.03;5.77;;;17.20;71.20;;;;;;5047914;28;20227;-87
2022/06/28 06:12:39;;;;;;;25.03;7.20;;;17.20;71.20;;;;;;5025801;28;20339;-88
2022/06/28 06:15:10;;;;;;;12.93;4.53;;;17.30;71.40;;;;;;5051215;28;20260;-89
2022/06/28 06:17:37;;;;;;;20.33;5.17;;;17.40;71.90;;;;;;5052054;28;20193;-89
2022/06/28 06:20:09;;;;;;;10.97;3.83;;;17.40;71.40;;;;;;5051560;28;20672;-90
2022/06/28 06:22:38;;;;;;;16.83;5.17;;;17.40;71.70;;;;;;5052508;28;20209;-89
2022/06/28 06:27:49;;;;;;;16.03;4.90;;;17.50;71.60;;;;;;5050024;28;20661;-88
2022/06/28 06:30:18;;;;;;;9.67;3.63;;;17.60;71.50;;;;;;5046610;28;20269;-89
2022/06/28 06:32:46;;;;;;;14.80;4.60;;;17.70;71.30;;;;;;5052179;28;20720;-89
2022/06/28 06:35:13;;;;;;;15.13;4.30;;;17.70;71.10;;;;;;5051012;28;20216;-90
2022/06/28 06:37:40;;;;;;;14.63;4.90;;;17.70;70.80;;;;;;5044243;28;20222;-88
2022/06/28 06:40:08;;;;;;;13.53;5.00;;;17.80;70.70;;;;;;5038754;28;20259;-89
2022/06/28 06:42:37;;;;;;;18.97;5.97;;;17.80;70.80;;;;;;5037929;28;20278;-88
2022/06/28 06:45:07;;;;;;;21.60;5.97;;;17.90;70.40;;;;;;5038455;28;20649;-90
2022/06/28 06:47:36;;;;;;;19.10;5.27;;;17.90;70.40;;;;;;5040314;28;20197;-89
2022/06/28 06:50:09;;;;;;;12.80;4.30;;;18.00;70.40;;;;;;5038530;28;20316;-88
2022/06/28 06:52:36;;;;;;;13.37;3.57;;;18.00;70.10;;;;;;5039927;28;20197;-89
2022/06/28 06:55:04;;;;;;;17.43;4.70;;;18.10;69.80;;;;;;5038380;28;20534;-89
2022/06/28 06:57:31;;;;;;;21.10;7.33;;;18.20;69.50;;;;;;5039368;28;20840;-90
2022/06/28 06:59:58;;;;;;;14.30;4.27;;;18.20;69.00;;;;;;5038261;28;20198;-88
2022/06/28 07:02:25;;;;;;;12.50;3.90;;;18.30;69.00;;;;;;5038671;28;20190;-88
2022/06/28 07:04:54;;;;;;;10.43;3.87;;;18.30;68.90;;;;;;5037763;28;20285;-88
2022/06/28 07:07:21;;;;;;;15.83;4.40;;;18.40;68.90;;;;;;5038062;28;20946;-88
2022/06/28 07:09:48;;;;;;;14.23;4.70;;;18.40;68.20;;;;;;5038888;28;20257;-88
2022/06/28 07:12:27;;;;;;;23.30;5.83;;;18.50;67.80;;;;;;5037024;28;20211;-90
2022/06/28 07:14:54;;;;;;;19.43;5.13;;;18.50;67.70;;;;;;5037839;28;20751;-88
2022/06/28 07:17:21;;;;;;;13.83;4.40;;;18.60;67.30;;;;;;5037939;28;20196;-87
2022/06/28 07:19:48;;;;;;;13.17;4.03;;;18.60;67.10;;;;;;5037317;28;20254;-88
2022/06/28 07:22:19;;;;;;;19.43;5.70;;;18.70;67.10;;;;;;5038367;28;20210;-88
2022/06/28 07:24:46;;;;;;;16.93;4.63;;;18.70;66.30;;;;;;5038155;28;20264;-88
2022/06/28 07:27:14;;;;;;;20.70;5.53;;;18.80;65.70;;;;;;5036636;28;20293;-89
2022/06/28 07:29:42;;;;;;;11.37;4.00;;;18.80;65.20;;;;;;5037434;28;20311;-89
2022/06/28 07:32:09;;;;;;;13.70;4.17;;;18.90;64.60;;;;;;5036200;28;20232;-88
2022/06/28 07:34:38;;;;;;;14.60;5.03;;;18.90;64.60;;;;;;5037111;28;20285;-88
2022/06/28 07:37:05;;;;;;;16.07;4.70;;;19.00;64.70;;;;;;5034080;28;20263;-88
2022/06/28 07:39:34;;;;;;;12.17;3.60;;;19.10;64.40;;;;;;5029081;28;20247;-89
2022/06/28 07:42:02;;;;;;;10.17;3.77;;;19.10;64.10;;;;;;5032507;28;20719;-88
2022/06/28 07:44:31;;;;;;;14.03;4.33;;;19.20;64.10;;;;;;5049041;28;20261;-89
2022/06/28 07:47:08;;;;;;;11.10;3.57;;;19.20;63.80;;;;;;5049064;28;20306;-90
2022/06/28 07:52:37;;;;;;;11.20;3.13;;;19.30;62.80;;;;;;5027828;28;20203;-89
2022/06/28 07:55:08;;;;;;;9.13;3.10;;;19.40;62.80;;;;;;5048723;28;20243;-88
2022/06/28 07:57:36;;;;;;;6.73;2.77;;;19.50;63.00;;;;;;5047357;28;20228;-88
2022/06/28 08:00:04;;;;;;;7.93;2.80;;;19.50;62.90;;;;;;5048529;28;20238;-88
2022/06/28 08:02:33;;;;;;;11.53;4.17;;;19.50;62.30;;;;;;5047208;28;20200;-90
2022/06/28 08:05:01;;;;;;;12.47;3.57;;;19.60;61.50;;;;;;5047990;28;20207;-89
2022/06/28 08:07:28;;;;;;;11.97;4.20;;;19.70;61.10;;;;;;5048055;28;20203;-87
2022/06/28 08:09:55;;;;;;;11.57;3.60;;;19.70;60.80;;;;;;5048656;28;20227;-88
2022/06/28 08:12:24;;;;;;;12.33;3.67;;;19.80;60.60;;;;;;5047623;28;20927;-88
2022/06/28 08:14:51;;;;;;;11.27;3.37;;;19.80;59.90;;;;;;5049175;28;20309;-88
2022/06/28 08:17:18;;;;;;;9.50;3.03;;;19.90;60.10;;;;;;5049420;28;20243;-90
2022/06/28 08:19:45;;;;;;;10.63;3.57;;;19.90;59.90;;;;;;5048150;28;20253;-89
2022/06/28 08:22:14;;;;;;;11.73;4.10;;;20.00;60.00;;;;;;5031911;28;20278;-88
2022/06/28 08:24:41;;;;;;;13.23;4.20;;;20.00;59.80;;;;;;5042718;28;20208;-88
2022/06/28 08:27:08;;;;;;;17.27;5.70;;;20.10;59.70;;;;;;5045969;28;21630;-89
2022/06/28 08:29:37;;;;;;;15.50;5.20;;;20.20;60.00;;;;;;5045050;28;20259;-87
2022/06/28 08:32:05;;;;;;;14.07;4.07;;;20.20;60.20;;;;;;5050004;28;20625;-89
2022/06/28 08:34:32;;;;;;;14.80;4.30;;;20.30;59.80;;;;;;5051007;28;20230;-89
2022/06/28 08:36:59;;;;;;;14.10;4.87;;;20.40;59.50;;;;;;5050554;28;20310;-89
2022/06/28 08:39:26;;;;;;;9.60;2.93;;;20.50;59.90;;;;;;5045180;28;20287;-90
2022/06/28 08:41:54;;;;;;;8.67;3.13;;;20.70;59.70;;;;;;5047499;28;21026;-89
2022/06/28 08:44:24;;;;;;;10.47;3.37;;;20.80;59.90;;;;;;5047749;28;21027;-89
2022/06/28 08:46:53;;;;;;;12.70;4.00;;;21.00;59.30;;;;;;5047262;28;20671;-88
2022/06/28 08:49:26;;;;;;;11.73;3.67;;;21.20;59.00;;;;;;5048679;28;20761;-88
2022/06/28 08:52:04;;;;;;;9.63;3.77;;;21.40;58.30;;;;;;5047854;28;20310;-89
2022/06/28 08:54:31;;;;;;;9.20;2.73;;;21.70;57.90;;;;;;5048331;28;20306;-89
2022/06/28 08:57:00;;;;;;;13.00;4.23;;;21.90;58.70;;;;;;5047645;28;20196;-88
2022/06/28 08:59:27;;;;;;;16.33;5.93;;;22.10;58.30;;;;;;5044979;28;20692;-88
2022/06/28 09:01:58;;;;;;;9.43;3.37;;;22.30;57.80;;;;;;5047232;28;20268;-87
2022/06/28 09:04:31;;;;;;;14.10;5.10;;;22.60;57.10;;;;;;5046170;28;20284;-88
2022/06/28 09:06:58;;;;;;;10.73;4.17;;;22.80;57.40;;;;;;5043301;28;20815;-89
2022/06/28 09:09:26;;;;;;;8.30;3.43;;;23.00;57.60;;;;;;5045760;28;20316;-89
2022/06/28 09:11:54;;;;;;;11.10;4.00;;;23.20;57.20;;;;;;5046007;28;20667;-89
2022/06/28 09:14:24;;;;;;;12.13;4.60;;;23.40;57.40;;;;;;5046902;28;20204;-87
2022/06/28 09:16:52;;;;;;;9.87;3.53;;;23.60;56.60;;;;;;5046316;28;20209;-88
2022/06/28 09:19:33;;;;;;;13.20;4.17;;;23.80;56.30;;;;;;5046280;28;20261;-88
2022/06/28 09:22:00;;;;;;;14.10;4.87;;;24.00;54.80;;;;;;5043245;28;20207;-88
2022/06/28 09:24:28;;;;;;;10.00;3.13;;;24.20;55.80;;;;;;5045377;28;20261;-89
2022/06/28 09:26:55;;;;;;;11.13;4.20;;;24.40;55.80;;;;;;5047979;28;20232;-87
2022/06/28 09:29:22;;;;;;;9.87;3.33;;;24.50;55.30;;;;;;5045624;28;20852;-88
2022/06/28 09:31:51;;;;;;;13.37;5.40;;;24.70;55.40;;;;;;5040605;28;20239;-88
2022/06/28 09:34:18;;;;;;;18.33;4.83;;;24.80;54.90;;;;;;5046603;28;20288;-87
2022/06/28 09:36:56;;;;;;;32.50;8.10;;;25.00;54.90;;;;;;5046561;28;20330;-89
2022/06/28 09:39:28;;;;;;;10.60;3.50;;;25.10;53.50;;;;;;5046451;28;20208;-89
2022/06/28 09:41:56;;;;;;;11.80;4.53;;;25.30;54.60;;;;;;5044394;28;20228;-88
2022/06/28 09:44:26;;;;;;;9.33;4.03;;;25.40;54.00;;;;;;5046416;28;20880;-87
2022/06/28 09:46:54;;;;;;;8.40;3.67;;;25.50;53.20;;;;;;5044343;28;20602;-89
2022/06/28 09:49:28;;;;;;;9.07;3.77;;;25.60;53.90;;;;;;5041940;28;20192;-89
2022/06/28 09:52:02;;;;;;;11.23;3.13;;;25.80;52.90;;;;;;5046817;28;20237;-89
2022/06/28 09:54:30;;;;;;;10.93;4.00;;;25.90;53.00;;;;;;5045973;28;20271;-88
2022/06/28 09:56:58;;;;;;;8.43;3.43;;;26.00;53.10;;;;;;5049240;28;20656;-89
2022/06/28 09:59:27;;;;;;;11.40;4.73;;;26.10;53.10;;;;;;5049532;28;20266;-90
2022/06/28 10:01:55;;;;;;;10.50;3.63;;;26.20;52.60;;;;;;5048234;28;20210;-90
2022/06/28 10:04:23;;;;;;;10.43;4.17;;;26.40;51.90;;;;;;5037511;28;20284;-90
2022/06/28 10:06:53;;;;;;;13.67;5.60;;;26.50;51.60;;;;;;5039898;28;20204;-89
2022/06/28 10:09:22;;;;;;;11.77;4.53;;;26.50;51.60;;;;;;5034890;28;20668;-90
2022/06/28 10:17:36;;;;;;;7.63;3.10;;;26.70;51.80;;;;;;5039850;28;20235;-90
2022/06/28 10:20:06;;;;;;;6.00;2.60;;;26.90;50.60;;;;;;5051097;28;20630;-90
2022/06/28 10:22:33;;;;;;;9.03;3.57;;;26.90;50.30;;;;;;5059801;28;20208;-89
2022/06/28 10:25:04;;;;;;;7.80;3.47;;;27.00;50.40;;;;;;5058150;28;20193;-90
2022/06/28 10:27:43;;;;;;;8.43;2.93;;;27.00;50.20;;;;;;5048651;28;20219;-89
2022/06/28 10:30:29;;;;;;;9.43;3.40;;;27.10;50.00;;;;;;5050619;28;20231;-89
2022/06/28 10:32:57;;;;;;;9.23;3.47;;;27.20;48.70;;;;;;5050206;28;20817;-89
2022/06/28 10:35:52;;;;;;;12.53;4.83;;;27.30;49.20;;;;;;5048915;28;20668;-89
2022/06/28 10:38:20;;;;;;;9.03;3.70;;;27.30;47.60;;;;;;5048395;28;20215;-89
2022/06/28 10:40:49;;;;;;;7.47;3.23;;;27.40;49.20;;;;;;5049998;28;20291;-87
2022/06/28 10:43:31;;;;;;;9.93;3.63;;;27.40;49.40;;;;;;5050252;28;20258;-90
2022/06/28 10:46:09;;;;;;;6.80;3.00;;;27.50;49.40;;;;;;5047510;28;20204;-88
2022/06/28 10:49:07;;;;;;;11.60;4.93;;;27.50;48.70;;;;;;5047753;28;20228;-89
2022/06/28 10:51:36;;;;;;;6.33;2.70;;;27.50;48.90;;;;;;4948509;28;20224;-89
2022/06/28 10:54:06;;;;;;;6.87;3.20;;;27.60;48.90;;;;;;5016958;28;20239;-90
2022/06/28 10:56:40;;;;;;;10.33;3.60;;;27.60;48.30;;;;;;5045160;28;20208;-90
2022/06/28 10:59:46;;;;;;;10.73;4.07;;;27.50;48.30;;;;;;5049471;28;20234;-89
2022/06/28 11:02:18;;;;;;;7.13;3.23;;;27.50;48.50;;;;;;5049176;28;20207;-90
2022/06/28 11:04:46;;;;;;;10.30;4.50;;;27.50;48.60;;;;;;5048216;28;20269;-89
2022/06/28 11:07:24;;;;;;;8.30;3.83;;;27.40;48.70;;;;;;5048313;28;20222;-89
2022/06/28 11:10:06;;;;;;;10.80;4.63;;;27.50;48.30;;;;;;5044055;28;20286;-89
2022/06/28 11:12:42;;;;;;;10.07;3.90;;;27.50;49.00;;;;;;5032679;28;20770;-88
2022/06/28 11:15:11;;;;;;;8.00;3.33;;;27.60;48.50;;;;;;5041329;28;20288;-89
2022/06/28 11:17:40;;;;;;;6.43;3.13;;;27.60;48.80;;;;;;5048828;28;20322;-93
2022/06/28 11:20:10;;;;;;;8.97;3.73;;;27.70;48.70;;;;;;5048948;28;20204;-88
2022/06/28 11:22:41;;;;;;;7.63;2.87;;;27.70;48.40;;;;;;5049720;28;20212;-89
2022/06/28 11:25:10;;;;;;;10.07;4.20;;;27.70;48.10;;;;;;5049437;28;20204;-89
2022/06/28 11:27:45;;;;;;;8.50;3.27;;;27.80;48.20;;;;;;5049362;28;20284;-89
2022/06/28 11:30:13;;;;;;;14.10;5.47;;;27.70;47.90;;;;;;5044714;28;20845;-90
2022/06/28 11:32:43;;;;;;;5.90;2.47;;;27.70;48.60;;;;;;5038119;28;20263;-89
2022/06/28 11:35:12;;;;;;;13.97;5.97;;;27.80;48.60;;;;;;5041724;28;20204;-90
2022/06/28 11:37:51;;;;;;;5.17;2.50;;;27.80;48.40;;;;;;5062095;28;20274;-88
2022/06/28 11:40:21;;;;;;;8.47;3.57;;;27.80;47.80;;;;;;5051197;28;20716;-91
2022/06/28 11:43:02;;;;;;;7.20;2.87;;;27.80;48.10;;;;;;5050480;28;20199;-88
2022/06/28 11:45:31;;;;;;;11.37;4.97;;;27.80;47.40;;;;;;5049923;28;20200;-90
2022/06/28 11:48:03;;;;;;;8.97;3.10;;;27.70;47.80;;;;;;5049576;28;20270;-88
2022/06/28 11:50:40;;;;;;;5.67;2.70;;;27.70;48.30;;;;;;5049458;28;20196;-87
2022/06/28 11:53:08;;;;;;;9.90;3.90;;;27.70;47.80;;;;;;5033885;28;20307;-90
2022/06/28 11:55:40;;;;;;;7.10;2.73;;;27.70;48.10;;;;;;5029510;28;20700;-89
2022/06/28 11:58:17;;;;;;;10.50;3.77;;;27.70;47.80;;;;;;5028956;28;20308;-88
2022/06/28 12:01:08;;;;;;;7.63;3.40;;;27.70;48.30;;;;;;5029336;28;20219;-87
2022/06/28 12:03:54;;;;;;;7.57;3.30;;;27.70;48.10;;;;;;5028885;28;20204;-88
2022/06/28 12:06:24;;;;;;;9.73;3.67;;;27.70;48.50;;;;;;5041387;28;20333;-90
2022/06/28 12:08:54;;;;;;;8.53;3.40;;;27.80;48.60;;;;;;5048004;28;20588;-88
2022/06/28 12:11:36;;;;;;;8.57;3.80;;;27.80;48.30;;;;;;5048057;28;20699;-91
2022/06/28 12:14:12;;;;;;;6.23;2.97;;;27.80;47.20;;;;;;5048365;28;20197;-88
2022/06/28 12:16:41;;;;;;;8.63;3.47;;;27.90;48.20;;;;;;5048057;28;20266;-90
2022/06/28 12:19:09;;;;;;;11.10;4.60;;;27.90;47.70;;;;;;5045036;28;20335;-89
2022/06/28 12:21:38;;;;;;;5.67;2.47;;;28.00;47.70;;;;;;5045946;28;20246;-90
2022/06/28 12:24:07;;;;;;;6.30;2.63;;;28.10;47.50;;;;;;5047686;28;20726;-88
2022/06/28 12:26:45;;;;;;;8.40;3.50;;;28.10;47.10;;;;;;5048396;28;20208;-88
2022/06/28 12:29:14;;;;;;;10.27;4.57;;;28.10;46.70;;;;;;5047875;28;20231;-90
2022/06/28 12:31:44;;;;;;;7.90;3.13;;;28.20;47.50;;;;;;5047814;28;20958;-89
2022/06/28 12:34:16;;;;;;;10.17;3.97;;;28.20;47.00;;;;;;5046786;28;20507;-90
2022/06/28 12:36:43;;;;;;;7.90;3.33;;;28.20;46.70;;;;;;5048025;28;20252;-88
2022/06/28 12:39:10;;;;;;;5.90;2.70;;;28.30;47.50;;;;;;5045532;28;20196;-90
2022/06/28 12:41:37;;;;;;;6.10;2.57;;;28.30;47.20;;;;;;5047834;28;20243;-89
2022/06/28 12:44:09;;;;;;;4.40;2.27;;;28.40;46.90;;;;;;5048663;28;20748;-88
2022/06/28 12:46:37;;;;;;;7.93;3.30;;;28.40;46.70;;;;;;5047700;28;20212;-89
2022/06/28 12:49:20;;;;;;;6.60;3.33;;;28.40;47.00;;;;;;5048062;28;20209;-89
2022/06/28 12:51:49;;;;;;;11.83;4.40;;;28.40;46.60;;;;;;5047256;28;20228;-90
2022/06/28 12:54:17;;;;;;;7.97;3.40;;;28.40;46.90;;;;;;5047519;28;20679;-91
2022/06/28 12:56:45;;;;;;;7.60;3.53;;;28.50;46.80;;;;;;5047917;28;20602;-90
2022/06/28 12:59:15;;;;;;;8.60;3.80;;;28.50;46.80;;;;;;5048976;28;20240;-92
2022/06/28 13:01:45;;;;;;;8.80;2.90;;;28.60;46.10;;;;;;5048645;28;20889;-90
2022/06/28 13:04:33;;;;;;;10.40;4.10;;;28.60;46.00;;;;;;5049344;28;20312;-92
2022/06/28 13:07:00;;;;;;;12.23;4.33;;;28.70;46.00;;;;;;5051014;28;20303;-91